Thunderstorms From: 20-05-2018 15:00 Until: 21-05-2018 15:00 warning for: Thunderstorms Level: Yellow info button

Although rather usual in this region, locally or potentially dangerous phenomena are expected. (such as local winds, summer thunderstorms, rising streams or high waves) Be aware and pay attention to the latest weather updates, especially if you carry out activities exposed to weather or close to a stream or shoreline. 


Meteo18 Weather Cam more information Meteo18 Weather Cam


warning for Thunderstorms more information blitzortung!


Rain radar more information rain snow radar


Visit our other weather sites:

Template documentation
and downloads

And another site



Weather Underground History page Text

Daily Summary for June 6, 2017 Units:  Metric    English   Both
« Previous Day
Next Day »
Daily Weekly Monthly Yearly Custom
  High: Low: Average:
Temperature: -17.8 °C -11.7 °C -10.1 °C
Dew Point: -17.8 °C -13.9 °C -12.3 °C
Humidity: Humidity % 52 % 77 %
Wind Speed: 0 km/h 0 km/h 19 km/h
Wind Gust: 0 km/h - -
Wind:- - WSW
Pressure: 0 hPa 34005.6 hPa -
Precipitation: 276.86 mm    
Historical Graphs
 
 
Tabular Data for June 6, 2017
Time Temperature Dew Point Pressure Wind Wind Speed Wind Gust Humidity Rainfall Rate (Hourly)
-17.8 °C -17.8 °C 0 hPa Calm     Humidity % 0 mm
00:02 -9.9 °C -11.5 °C 34144.4 hPa Calm   10.3 km/h 83 % 0 mm
00:07 -9.9 °C -11.5 °C 34144.4 hPa SSW 5.1 km/h 7.7 km/h 83 % 0 mm
00:12 -9.9 °C -11.5 °C 34144.4 hPa Calm   7.7 km/h 83 % 0 mm
00:17 -9.9 °C -11.4 °C 34144.4 hPa SW 5.1 km/h 7.7 km/h 84 % 0 mm
00:22 -9.9 °C -11.4 °C 34144.4 hPa SSW 7.7 km/h 10.3 km/h 84 % 0 mm
00:27 -9.9 °C -11.4 °C 34144.4 hPa SSW 12.9 km/h 12.9 km/h 84 % 0 mm
00:32 -9.9 °C -11.4 °C 34144.4 hPa SW 7.7 km/h 12.9 km/h 84 % 0 mm
00:42 -9.8 °C -11.4 °C 34130.9 hPa SW 12.9 km/h 12.9 km/h 83 % 0 mm
00:47 -9.8 °C -11.4 °C 34130.9 hPa SSW 7.7 km/h 20.8 km/h 83 % 0 mm
00:52 -9.7 °C -11.4 °C 34130.9 hPa SW 10.3 km/h 20.8 km/h 82 % 0 mm
00:57 -9.7 °C -11.3 °C 34130.9 hPa WSW 10.3 km/h 20.8 km/h 82 % 0 mm
01:02 -9.6 °C -11.3 °C 34130.9 hPa South 10.3 km/h 15.6 km/h 82 % 0 mm
01:07 -9.6 °C -11.3 °C 34120.7 hPa SW 7.7 km/h 18.2 km/h 82 % 0 mm
01:12 -9.6 °C -11.3 °C 34120.7 hPa SW 15.6 km/h 18.2 km/h 81 % 0 mm
01:17 -9.6 °C -11.2 °C 34120.7 hPa SW 12.9 km/h 18.2 km/h 82 % 0 mm
01:22 -9.6 °C -11.3 °C 34120.7 hPa SW 10.3 km/h 18.2 km/h 81 % 0 mm
01:27 -9.4 °C -11.4 °C 34120.7 hPa WSW 12.9 km/h 20.8 km/h 79 % 0 mm
01:32 -9.2 °C -11.4 °C 34107.2 hPa SSW 7.7 km/h 28.5 km/h 77 % 0 mm
01:37 -9.1 °C -11.3 °C 34107.2 hPa SW 23.3 km/h 28.5 km/h 77 % 0 mm
01:42 -9.2 °C -11.3 °C 34107.2 hPa SSW 12.9 km/h 28.5 km/h 78 % 0 mm
01:47 -9.3 °C -11.2 °C 34107.2 hPa SSW 7.7 km/h 28.5 km/h 80 % 0 mm
01:52 -9.4 °C -11.2 °C 34107.2 hPa South 5.1 km/h 28.5 km/h 81 % 0 mm
01:57 -9.4 °C -11.2 °C 34097 hPa SW 10.3 km/h 20.8 km/h 81 % 0 mm
02:02 -9.4 °C -11.3 °C 34097 hPa West 5.1 km/h 15.6 km/h 80 % 0 mm
02:07 -9.3 °C -11.3 °C 34107.2 hPa SSW 10.3 km/h 25.9 km/h 79 % 0 mm
02:12 -9.4 °C -11.2 °C 34107.2 hPa SW 18.2 km/h 25.9 km/h 81 % 0 mm
02:17 -9.4 °C -11.3 °C 34107.2 hPa SSW 23.3 km/h 49.2 km/h 80 % 12.7 mm
02:22 -9.6 °C -11.3 °C 34107.2 hPa WSW 20.8 km/h 49.2 km/h 82 % 12.7 mm
02:27 -9.8 °C -11.2 °C 34107.2 hPa SSW 5.1 km/h 49.2 km/h 85 % 12.7 mm
02:32 -10 °C -11.2 °C 34107.2 hPa WSW 18.2 km/h 46.7 km/h 87 % 12.7 mm
02:37 -10.1 °C -11.2 °C 34107.2 hPa SSW 7.7 km/h 31.1 km/h 88 % 12.7 mm
02:42 -10.2 °C -11.2 °C 34097 hPa SSW 7.7 km/h 33.6 km/h 89 % 33.02 mm
02:47 -10.2 °C -11.1 °C 34086.9 hPa SSW 10.3 km/h 33.6 km/h 90 % 38.1 mm
02:52 -10.2 °C -11 °C 34086.9 hPa South 5.1 km/h 20.8 km/h 91 % 38.1 mm
02:57 -10.3 °C -11 °C 34086.9 hPa SSW 7.7 km/h 18.2 km/h 92 % 45.72 mm
03:02 -10.3 °C -11 °C 34086.9 hPa SSW 7.7 km/h 20.8 km/h 92 % 58.42 mm
03:07 -10.3 °C -11.1 °C 34073.3 hPa SSW 18.2 km/h 20.8 km/h 92 % 63.5 mm
03:12 -10.3 °C -10.9 °C 34073.3 hPa SW 18.2 km/h 31.1 km/h 93 % 76.2 mm
03:17 -10.3 °C -10.9 °C 34073.3 hPa SSW 15.6 km/h 33.6 km/h 93 % 83.82 mm
03:22 -10.4 °C -11 °C 34063.2 hPa SW 18.2 km/h 33.6 km/h 93 % 96.52 mm
03:27 -10.4 °C -11.1 °C 34063.2 hPa SW 23.3 km/h 33.6 km/h 93 % 109.22 mm
03:32 -10.4 °C -11.1 °C 34063.2 hPa SSW 10.3 km/h 28.5 km/h 93 % 109.22 mm
03:37 -10.4 °C -10.9 °C 34063.2 hPa SSW 5.1 km/h 28.5 km/h 94 % 109.22 mm
03:42 -10.4 °C -10.9 °C 34049.6 hPa South 5.1 km/h 28.5 km/h 94 % 109.22 mm
03:47 -10.5 °C -11 °C 34049.6 hPa SSW 7.7 km/h 23.3 km/h 94 % 109.22 mm
03:52 -10.5 °C -11 °C 34049.6 hPa SSE 5.1 km/h 23.3 km/h 94 % 104.14 mm
03:57 -10.5 °C -11 °C 34049.6 hPa SSE 7.7 km/h 23.3 km/h 94 % 91.44 mm
04:02 -10.5 °C -11 °C 34039.5 hPa SW 12.9 km/h 20.8 km/h 94 % 83.82 mm
04:07 -10.5 °C -10.9 °C 34039.5 hPa SSE 5.1 km/h 20.8 km/h 95 % 71.12 mm
04:12 -10.5 °C -10.9 °C 34039.5 hPa SSW 7.7 km/h 20.8 km/h 95 % 58.42 mm
04:17 -10.5 °C -10.9 °C 34039.5 hPa SSW 7.7 km/h 15.6 km/h 95 % 45.72 mm
04:22 -10.4 °C -10.9 °C 34039.5 hPa SSW 7.7 km/h 15.6 km/h 95 % 38.1 mm
04:27 -10.4 °C -10.9 °C 34029.3 hPa SW 7.7 km/h 15.6 km/h 95 % 33.02 mm
04:32 -10.4 °C -10.9 °C 34029.3 hPa SE 7.7 km/h 15.6 km/h 95 % 20.32 mm
04:37 -10.4 °C -10.9 °C 34029.3 hPa SSE 5.1 km/h 20.8 km/h 95 % 12.7 mm
04:42 -10.4 °C -10.9 °C 34029.3 hPa SW 10.3 km/h 20.8 km/h 95 % 12.7 mm
04:47 -10.4 °C -10.9 °C 34029.3 hPa SSE 7.7 km/h 18.2 km/h 95 % 12.7 mm
04:52 -10.4 °C -10.8 °C 34015.8 hPa SSW 5.1 km/h 28.5 km/h 95 % 12.7 mm
04:57 -10.4 °C -10.8 °C 34015.8 hPa South 25.9 km/h 31.1 km/h 95 % 12.7 mm
05:02 -10.3 °C -10.8 °C 34015.8 hPa SSW 12.9 km/h 31.1 km/h 94 % 12.7 mm
05:07 -10.2 °C -10.7 °C 34015.8 hPa SSW 23.3 km/h 31.1 km/h 94 % 12.7 mm
05:12 -10.2 °C -10.8 °C 34015.8 hPa SSE 18.2 km/h 31.1 km/h 93 % 12.7 mm
05:17 -10.2 °C -10.8 °C 34015.8 hPa SW 12.9 km/h 36.2 km/h 93 % 12.7 mm
05:22 -10.2 °C -10.8 °C 34015.8 hPa South 25.9 km/h 36.2 km/h 93 % 33.02 mm
05:27 -10.2 °C -10.7 °C 34015.8 hPa SSW 15.6 km/h 36.2 km/h 94 % 33.02 mm
05:32 -10.2 °C -10.7 °C 34005.6 hPa South 18.2 km/h 33.6 km/h 94 % 38.1 mm
05:37 -10.2 °C -10.7 °C 34015.8 hPa WSW 10.3 km/h 33.6 km/h 94 % 38.1 mm
05:42 -10.2 °C -10.7 °C 34015.8 hPa WSW 12.9 km/h 31.1 km/h 94 % 38.1 mm
05:47 -10.2 °C -10.7 °C 34015.8 hPa SW 2.6 km/h 31.1 km/h 94 % 38.1 mm
05:52 -10.2 °C -10.7 °C 34005.6 hPa WSW 25.9 km/h 36.2 km/h 94 % 45.72 mm
05:57 -10.2 °C -10.7 °C 34015.8 hPa SSW 23.3 km/h 36.2 km/h 94 % 45.72 mm
06:02 -10.2 °C -10.7 °C 34015.8 hPa WSW 28.5 km/h 44.1 km/h 94 % 50.8 mm
06:07 -10.2 °C -10.7 °C 34005.6 hPa SSW 15.6 km/h 46.7 km/h 94 % 71.12 mm
06:12 -10.2 °C -10.7 °C 34015.8 hPa SW 18.2 km/h 46.7 km/h 94 % 76.2 mm
06:17 -10.2 °C -10.7 °C 34005.6 hPa WSW 28.5 km/h 46.7 km/h 94 % 58.42 mm
06:27 -10.2 °C -10.7 °C 34005.6 hPa WSW 20.8 km/h 41.4 km/h 94 % 50.8 mm
06:32 -10.2 °C -10.7 °C 34015.8 hPa SW 33.6 km/h 41.4 km/h 94 % 50.8 mm
06:42 -10.1 °C -10.6 °C 34015.8 hPa WSW 20.8 km/h 54.4 km/h 94 % 38.1 mm
06:52 -10.1 °C -10.6 °C 34029.3 hPa SW 15.6 km/h 57 km/h 94 % 38.1 mm
06:57 -10.2 °C -10.7 °C 34029.3 hPa West 7.7 km/h 51.8 km/h 94 % 38.1 mm
07:02 -10.2 °C -10.7 °C 34029.3 hPa WSW 31.1 km/h 54.4 km/h 94 % 38.1 mm
07:07 -10.2 °C -10.8 °C 34029.3 hPa WSW 31.1 km/h 54.4 km/h 93 % 20.32 mm
07:12 -10.2 °C -10.9 °C 34029.3 hPa WSW 18.2 km/h 54.4 km/h 92 % 20.32 mm
07:17 -10.2 °C -10.9 °C 34039.5 hPa WSW 28.5 km/h 54.4 km/h 91 % 20.32 mm
07:22 -10.3 °C -11.3 °C 34049.6 hPa West 33.6 km/h 59.5 km/h 89 % 12.7 mm
07:27 -10.4 °C -11.7 °C 34049.6 hPa West 18.2 km/h 59.5 km/h 86 % 12.7 mm
07:32 -10.4 °C -11.8 °C 34063.2 hPa West 31.1 km/h 59.5 km/h 85 % 12.7 mm
07:37 -10.5 °C -11.9 °C 34073.3 hPa West 18.2 km/h 57 km/h 85 % 12.7 mm
07:42 -10.6 °C -11.8 °C 34073.3 hPa WSW 18.2 km/h 57 km/h 86 % 12.7 mm
07:47 -10.5 °C -11.9 °C 34086.9 hPa WNW 18.2 km/h 57 km/h 85 % 12.7 mm
07:52 -10.5 °C -11.9 °C 34086.9 hPa WSW 25.9 km/h 38.8 km/h 85 % 12.7 mm
07:57 -10.6 °C -12 °C 34097 hPa West 33.6 km/h 49.2 km/h 85 % 7.62 mm
08:02 -10.7 °C -12 °C 34097 hPa West 23.3 km/h 54.4 km/h 86 % 0 mm
08:07 -10.9 °C -12.3 °C 34107.2 hPa West 31.1 km/h 54.4 km/h 85 % 0 mm
08:12 -10.9 °C -12.4 °C 34107.2 hPa NW 7.7 km/h 54.4 km/h 84 % 0 mm
08:17 -10.9 °C -12.2 °C 34120.7 hPa WNW 10.3 km/h 54.4 km/h 86 % 0 mm
08:22 -10.9 °C -12 °C 34130.9 hPa WSW 23.3 km/h 54.4 km/h 88 % 0 mm
08:32 -11.2 °C -12.5 °C 34144.4 hPa WNW 28.5 km/h 46.7 km/h 85 % 0 mm
08:37 -11.1 °C -12.4 °C 34144.4 hPa WNW 23.3 km/h 46.7 km/h 85 % 0 mm
08:42 -11 °C -12.4 °C 34144.4 hPa WNW 23.3 km/h 46.7 km/h 84 % 0 mm
08:47 -10.9 °C -12.6 °C 34144.4 hPa WNW 31.1 km/h 41.4 km/h 82 % 0 mm
08:52 -10.8 °C -12.6 °C 34144.4 hPa WNW 28.5 km/h 51.8 km/h 81 % 0 mm
08:57 -10.7 °C -12.6 °C 34154.6 hPa WNW 23.3 km/h 51.8 km/h 80 % 0 mm
09:02 -10.7 °C -12.7 °C 34154.6 hPa WSW 23.3 km/h 49.2 km/h 79 % 0 mm
09:07 -10.7 °C -12.8 °C 34154.6 hPa WNW 10.3 km/h 44.1 km/h 78 % 0 mm
09:12 -10.8 °C -12.7 °C 34164.7 hPa West 15.6 km/h 38.8 km/h 80 % 0 mm
09:17 -11 °C -12.8 °C 34178.3 hPa WNW 12.9 km/h 49.2 km/h 81 % 0 mm
09:22 -11 °C -12.7 °C 34178.3 hPa WNW 20.8 km/h 49.2 km/h 82 % 0 mm
09:27 -10.9 °C -12.9 °C 34178.3 hPa WNW 18.2 km/h 51.8 km/h 79 % 0 mm
09:32 -10.9 °C -12.7 °C 34178.3 hPa SW 25.9 km/h 51.8 km/h 81 % 0 mm
09:37 -11 °C -12.9 °C 34178.3 hPa West 36.2 km/h 51.8 km/h 79 % 0 mm
09:42 -11 °C -12.8 °C 34178.3 hPa WSW 28.5 km/h 46.7 km/h 80 % 0 mm
09:47 -10.9 °C -12.7 °C 34188.4 hPa West 23.3 km/h 46.7 km/h 81 % 0 mm
09:52 -10.9 °C -12.8 °C 34188.4 hPa SW 18.2 km/h 44.1 km/h 80 % 0 mm
09:57 -10.9 °C -12.9 °C 34188.4 hPa West 28.5 km/h 44.1 km/h 79 % 0 mm
10:02 -10.9 °C -12.7 °C 34188.4 hPa WSW 12.9 km/h 44.1 km/h 81 % 0 mm
10:07 -10.9 °C -13 °C 34188.4 hPa West 36.2 km/h 44.1 km/h 78 % 0 mm
10:12 -10.7 °C -12.4 °C 34198.6 hPa WNW 18.2 km/h 44.1 km/h 81 % 0 mm
10:22 -10.6 °C -12.9 °C 34198.6 hPa WSW 12.9 km/h 51.8 km/h 76 % 0 mm
10:27 -10.6 °C -12.8 °C 34198.6 hPa SW 23.3 km/h 51.8 km/h 77 % 0 mm
10:37 -10.3 °C -13.1 °C 34198.6 hPa West 23.3 km/h 51.8 km/h 72 % 0 mm
10:42 -10.3 °C -13 °C 34198.6 hPa West 18.2 km/h 51.8 km/h 72 % 0 mm
10:47 -10.4 °C -13.1 °C 34212.1 hPa WSW 25.9 km/h 51.8 km/h 72 % 0 mm
10:52 -10.3 °C -13.2 °C 34212.1 hPa WSW 33.6 km/h 46.7 km/h 71 % 0 mm
10:57 -10.2 °C -13.2 °C 34212.1 hPa WSW 20.8 km/h 49.2 km/h 70 % 0 mm
11:02 -10.1 °C -13 °C 34212.1 hPa WSW 23.3 km/h 51.8 km/h 71 % 0 mm
11:07 -10.1 °C -13.2 °C 34222.3 hPa WSW 28.5 km/h 51.8 km/h 69 % 0 mm
11:12 -10.1 °C -13.3 °C 34222.3 hPa West 20.8 km/h 57 km/h 68 % 0 mm
11:17 -9.9 °C -13.1 °C 34212.1 hPa West 23.3 km/h 67.3 km/h 69 % 0 mm
11:22 -10.1 °C -13.7 °C 34222.3 hPa WNW 20.8 km/h 67.3 km/h 65 % 0 mm
11:27 -9.9 °C -13.6 °C 34222.3 hPa West 18.2 km/h 59.5 km/h 65 % 0 mm
11:32 -9.8 °C -13.6 °C 34235.8 hPa West 25.9 km/h 59.5 km/h 64 % 0 mm
11:37 -9.8 °C -13.3 °C 34235.8 hPa West 41.4 km/h 64.7 km/h 66 % 0 mm
11:42 -9.8 °C -13.5 °C 34235.8 hPa WSW 15.6 km/h 64.7 km/h 64 % 0 mm
11:47 -9.8 °C -13.4 °C 34246 hPa West 33.6 km/h 64.7 km/h 65 % 0 mm
11:52 -9.9 °C -13.6 °C 34246 hPa WSW 41.4 km/h 67.3 km/h 65 % 0 mm
11:57 -9.9 °C -13.7 °C 34256.2 hPa West 25.9 km/h 67.3 km/h 64 % 0 mm
12:02 -9.9 °C -13.4 °C 34256.2 hPa West 25.9 km/h 67.3 km/h 66 % 0 mm
12:07 -9.8 °C -13.6 °C 34246 hPa West 38.8 km/h 57 km/h 64 % 0 mm
12:12 -9.6 °C -13.4 °C 34256.2 hPa WSW 15.6 km/h 57 km/h 63 % 0 mm
12:17 -9.4 °C -13.6 °C 34246 hPa WNW 20.8 km/h 57 km/h 61 % 0 mm
12:22 -9.5 °C -13.7 °C 34256.2 hPa West 38.8 km/h 51.8 km/h 61 % 0 mm
12:32 -9.2 °C -13.7 °C 34246 hPa West 25.9 km/h 64.7 km/h 59 % 0 mm
12:42 -9.2 °C -13.7 °C 34246 hPa SW 18.2 km/h 64.7 km/h 59 % 0 mm
12:47 -9.1 °C -13.7 °C 34246 hPa WSW 23.3 km/h 64.7 km/h 58 % 0 mm
12:52 -9.1 °C -13.2 °C 34256.2 hPa SW 15.6 km/h 59.5 km/h 62 % 0 mm
12:57 -9 °C -13.2 °C 34256.2 hPa WSW 44.1 km/h 57 km/h 61 % 0 mm
13:02 -9 °C -13.3 °C 34256.2 hPa SW 41.4 km/h 57 km/h 60 % 0 mm
13:07 -9 °C -13.3 °C 34256.2 hPa West 28.5 km/h 57 km/h 60 % 0 mm
13:12 -8.8 °C -13.3 °C 34256.2 hPa WSW 41.4 km/h 57 km/h 59 % 0 mm
13:17 -8.9 °C -13 °C 34256.2 hPa WSW 36.2 km/h 54.4 km/h 62 % 0 mm
13:22 -8.9 °C -13 °C 34256.2 hPa SW 20.8 km/h 62.1 km/h 62 % 0 mm
13:27 -8.8 °C -12.8 °C 34256.2 hPa West 12.9 km/h 62.1 km/h 62 % 0 mm
13:32 -8.8 °C -13.4 °C 34256.2 hPa WSW 31.1 km/h 62.1 km/h 58 % 0 mm
13:37 -8.8 °C -12.9 °C 34256.2 hPa WSW 33.6 km/h 54.4 km/h 62 % 0 mm
13:42 -8.8 °C -13.4 °C 34256.2 hPa WSW 31.1 km/h 54.4 km/h 58 % 0 mm
13:47 -8.8 °C -13.4 °C 34256.2 hPa West 15.6 km/h 54.4 km/h 58 % 0 mm
13:52 -8.7 °C -12.9 °C 34256.2 hPa WSW 38.8 km/h 67.3 km/h 61 % 0 mm
13:57 -8.8 °C -13.1 °C 34256.2 hPa SW 15.6 km/h 46.7 km/h 60 % 0 mm
14:02 -8.7 °C -13.4 °C 34256.2 hPa WSW 25.9 km/h 57 km/h 57 % 0 mm
14:07 -8.7 °C -13.3 °C 34256.2 hPa West 20.8 km/h 57 km/h 58 % 0 mm
14:12 -8.5 °C -13 °C 34256.2 hPa WNW 31.1 km/h 57 km/h 59 % 0 mm
14:17 -8.3 °C -13.7 °C 34256.2 hPa WSW 28.5 km/h 49.2 km/h 53 % 0 mm
14:22 -8.2 °C -13.7 °C 34256.2 hPa WSW 18.2 km/h 51.8 km/h 52 % 0 mm
14:32 -8.4 °C -13 °C 34256.2 hPa WSW 28.5 km/h 57 km/h 58 % 0 mm
14:42 -8.3 °C -13.2 °C 34256.2 hPa West 41.4 km/h 67.3 km/h 56 % 0 mm
14:47 -8.3 °C -13.3 °C 34269.7 hPa SW 23.3 km/h 67.3 km/h 55 % 0 mm
14:52 -8.4 °C -13.9 °C 34256.2 hPa SSW 23.3 km/h 69.8 km/h 52 % 0 mm
14:57 -8.4 °C -13.9 °C 34256.2 hPa WSW 28.5 km/h 69.8 km/h 52 % 0 mm
15:02 -8.4 °C -13.7 °C 34269.7 hPa WSW 75.2 km/h 75.2 km/h 54 % 0 mm
15:07 -8.5 °C -13.7 °C 34256.2 hPa SW 41.4 km/h 77.7 km/h 54 % 0 mm
15:12 -8.4 °C -13.6 °C 34256.2 hPa South 18.2 km/h 77.7 km/h 54 % 0 mm
15:17 -8.2 °C -13.4 °C 34269.7 hPa WSW 25.9 km/h 77.7 km/h 54 % 0 mm
15:22 -8.2 °C -13.4 °C 34256.2 hPa SW 49.2 km/h 64.7 km/h 54 % 0 mm
15:27 -8.2 °C -13.7 °C 34269.7 hPa WSW 23.3 km/h 67.3 km/h 52 % 0 mm
15:32 -8.4 °C -13.6 °C 34269.7 hPa SW 44.1 km/h 67.3 km/h 54 % 0 mm
15:37 -8.4 °C -13.3 °C 34269.7 hPa WNW 31.1 km/h 67.3 km/h 56 % 0 mm
15:42 -8.3 °C -13.7 °C 34279.9 hPa West 54.4 km/h 75.2 km/h 53 % 0 mm
15:52 -8.4 °C -13.7 °C 34269.7 hPa WSW 15.6 km/h 75.2 km/h 53 % 0 mm
15:57 -8.3 °C -13.5 °C 34269.7 hPa WSW 41.4 km/h 67.3 km/h 54 % 0 mm
16:02 -8.2 °C -13.2 °C 34269.7 hPa WSW 20.8 km/h 59.5 km/h 55 % 0 mm
16:07 -8.4 °C -13.2 °C 34279.9 hPa WNW 31.1 km/h 75.2 km/h 57 % 0 mm
16:12 -8.6 °C -13 °C 34279.9 hPa WSW 41.4 km/h 77.7 km/h 59 % 0 mm
16:17 -8.7 °C -12.7 °C 34279.9 hPa SW 23.3 km/h 77.7 km/h 62 % 0 mm
16:22 -8.4 °C -12.2 °C 34279.9 hPa West 33.6 km/h 77.7 km/h 64 % 0 mm
16:27 -8.7 °C -12.6 °C 34279.9 hPa SW 57 km/h 77.7 km/h 63 % 0 mm
16:32 -8.7 °C -13.2 °C 34279.9 hPa West 31.1 km/h 77.7 km/h 59 % 0 mm
16:37 -8.7 °C -13.1 °C 34279.9 hPa SW 33.6 km/h 77.7 km/h 59 % 0 mm
16:42 -8.6 °C -12.6 °C 34279.9 hPa West 28.5 km/h 64.7 km/h 62 % 0 mm
16:47 -8.7 °C -13.1 °C 34279.9 hPa WSW 28.5 km/h 62.1 km/h 59 % 0 mm
16:52 -8.6 °C -13 °C 34279.9 hPa WSW 36.2 km/h 75.2 km/h 59 % 0 mm
16:57 -8.6 °C -13 °C 34279.9 hPa SW 41.4 km/h 75.2 km/h 59 % 0 mm
17:02 -8.5 °C -13 °C 34293.4 hPa SW 31.1 km/h 62.1 km/h 59 % 0 mm
17:07 -8.6 °C -13 °C 34293.4 hPa West 46.7 km/h 62.1 km/h 59 % 0 mm
17:12 -8.9 °C -13 °C 34293.4 hPa SSW 33.6 km/h 75.2 km/h 62 % 0 mm
17:17 -9.1 °C -12.5 °C 34293.4 hPa West 12.9 km/h 75.2 km/h 67 % 0 mm
17:22 -9.1 °C -12.8 °C 34293.4 hPa SW 28.5 km/h 75.2 km/h 65 % 0 mm
17:27 -9.1 °C -12.5 °C 34293.4 hPa WSW 31.1 km/h 64.7 km/h 67 % 0 mm
17:32 -9.2 °C -12.4 °C 34293.4 hPa West 7.7 km/h 54.4 km/h 68 % 0 mm
17:37 -9.2 °C -12.4 °C 34303.6 hPa SSW 18.2 km/h 54.4 km/h 68 % 0 mm
17:42 -10.1 °C -12.8 °C 34313.7 hPa NNW 23.3 km/h 72.6 km/h 72 % 0 mm
17:47 -10.8 °C -12.6 °C 34303.6 hPa WNW 7.7 km/h 72.6 km/h 81 % 12.7 mm
17:52 -10.8 °C -12.2 °C 34303.6 hPa West 15.6 km/h 72.6 km/h 84 % 12.7 mm
17:57 -10.5 °C -11.9 °C 34303.6 hPa WNW 10.3 km/h 64.7 km/h 84 % 12.7 mm
18:02 -10.2 °C -11.9 °C 34303.6 hPa NW 5.1 km/h 28.5 km/h 81 % 12.7 mm
18:12 -9.4 °C -12.4 °C 34303.6 hPa West 41.4 km/h 41.4 km/h 70 % 12.7 mm
18:17 -9.1 °C -12.5 °C 34303.6 hPa West 15.6 km/h 49.2 km/h 67 % 12.7 mm
18:22 -9 °C -13.1 °C 34303.6 hPa WSW 25.9 km/h 49.2 km/h 62 % 12.7 mm
18:32 -8.8 °C -13.2 °C 34303.6 hPa WNW 28.5 km/h 54.4 km/h 59 % 12.7 mm
18:42 -9.2 °C -12.8 °C 34327.3 hPa WNW 54.4 km/h 67.3 km/h 65 % 12.7 mm
18:47 -9.6 °C -12.3 °C 34313.7 hPa West 25.9 km/h 67.3 km/h 72 % 0 mm
18:52 -9.4 °C -12.2 °C 34313.7 hPa West 15.6 km/h 67.3 km/h 72 % 7.62 mm
18:57 -9.3 °C -12.3 °C 34313.7 hPa West 20.8 km/h 67.3 km/h 70 % 7.62 mm
19:02 -9.3 °C -12.3 °C 34313.7 hPa West 18.2 km/h 41.4 km/h 70 % 7.62 mm
19:07 -9.4 °C -12.2 °C 34313.7 hPa WSW 7.7 km/h 33.6 km/h 72 % 7.62 mm
19:12 -9.4 °C -12.2 °C 34327.3 hPa NW 38.8 km/h 38.8 km/h 72 % 7.62 mm
19:17 -10.1 °C -12.6 °C 34327.3 hPa WNW 15.6 km/h 49.2 km/h 75 % 7.62 mm
19:22 -10.6 °C -12.5 °C 34337.4 hPa WNW 20.8 km/h 49.2 km/h 80 % 7.62 mm
19:27 -10.8 °C -12.5 °C 34337.4 hPa NW 5.1 km/h 49.2 km/h 82 % 7.62 mm
19:32 -10.9 °C -12.4 °C 34347.6 hPa NW 20.8 km/h 36.2 km/h 84 % 7.62 mm
19:37 -10.9 °C -12.4 °C 34347.6 hPa West 5.1 km/h 38.8 km/h 83 % 7.62 mm
19:42 -10.9 °C -12.5 °C 34347.6 hPa WNW 15.6 km/h 38.8 km/h 83 % 7.62 mm
19:47 -11 °C -12.6 °C 34347.6 hPa NW 20.8 km/h 38.8 km/h 83 % 0 mm
19:52 -11.1 °C -12.5 °C 34361.1 hPa WNW 12.9 km/h 38.8 km/h 84 % 0 mm
19:57 -11.1 °C -12.7 °C 34361.1 hPa WNW 12.9 km/h 41.4 km/h 83 % 0 mm
20:02 -11.2 °C -12.6 °C 34361.1 hPa West 12.9 km/h 44.1 km/h 84 % 0 mm
20:07 -11.2 °C -12.6 °C 34361.1 hPa North 5.1 km/h 46.7 km/h 85 % 0 mm
20:12 -11.3 °C -12.6 °C 34361.1 hPa NW 5.1 km/h 46.7 km/h 86 % 0 mm
20:17 -11.3 °C -12.6 °C 34371.3 hPa West 15.6 km/h 46.7 km/h 86 % 0 mm
20:22 -11.3 °C -12.6 °C 34371.3 hPa WNW 12.9 km/h 38.8 km/h 86 % 0 mm
20:27 -11.4 °C -12.7 °C 34371.3 hPa WNW 7.7 km/h 33.6 km/h 86 % 0 mm
20:32 -11.4 °C -12.7 °C 34361.1 hPa WNW 12.9 km/h 33.6 km/h 86 % 0 mm
20:37 -11.3 °C -12.6 °C 34361.1 hPa WNW 10.3 km/h 31.1 km/h 86 % 0 mm
20:42 -11.3 °C -12.6 °C 34361.1 hPa WSW 5.1 km/h 28.5 km/h 85 % 0 mm
20:47 -11.1 °C -12.7 °C 34361.1 hPa West 5.1 km/h 25.9 km/h 83 % 0 mm
20:52 -11 °C -12.8 °C 34361.1 hPa West 12.9 km/h 23.3 km/h 81 % 0 mm
20:57 -11 °C -12.8 °C 34371.3 hPa WSW 5.1 km/h 23.3 km/h 81 % 0 mm
21:02 -11.1 °C -12.9 °C 34371.3 hPa West 15.6 km/h 23.3 km/h 80 % 0 mm
21:07 -11.1 °C -13.1 °C 34371.3 hPa WSW 7.7 km/h 25.9 km/h 78 % 0 mm
21:12 -11.1 °C -13.1 °C 34371.3 hPa West 5.1 km/h 25.9 km/h 78 % 0 mm
21:17 -11.1 °C -13.2 °C 34384.8 hPa WSW 7.7 km/h 25.9 km/h 78 % 0 mm
21:22 -11.2 °C -13.1 °C 34384.8 hPa WNW 7.7 km/h 20.8 km/h 79 % 0 mm
21:32 -11.2 °C -13 °C 34395 hPa West 10.3 km/h 18.2 km/h 80 % 0 mm
21:37 -11.2 °C -13 °C 34395 hPa WSW 10.3 km/h 25.9 km/h 80 % 0 mm
21:42 -11.2 °C -13 °C 34395 hPa West 12.9 km/h 25.9 km/h 80 % 0 mm
21:47 -11.2 °C -13 °C 34395 hPa SSW 7.7 km/h 36.2 km/h 80 % 0 mm
21:52 -11.2 °C -13 °C 34395 hPa WSW 10.3 km/h 36.2 km/h 80 % 0 mm
21:57 -11.2 °C -13 °C 34395 hPa WSW 12.9 km/h 36.2 km/h 80 % 0 mm
22:02 -11.2 °C -12.9 °C 34395 hPa WSW 5.1 km/h 18.2 km/h 81 % 0 mm
22:07 -11.2 °C -13 °C 34405.1 hPa SW 7.7 km/h 20.8 km/h 81 % 0 mm
22:12 -11.2 °C -13 °C 34405.1 hPa West 10.3 km/h 20.8 km/h 81 % 0 mm
22:17 -11.3 °C -13.1 °C 34405.1 hPa WSW 7.7 km/h 23.3 km/h 81 % 0 mm
22:22 -11.3 °C -13 °C 34405.1 hPa West 5.1 km/h 23.3 km/h 82 % 0 mm
22:27 -11.4 °C -13 °C 34418.7 hPa WSW 2.6 km/h 18.2 km/h 83 % 0 mm
22:32 -11.5 °C -12.9 °C 34418.7 hPa Calm   15.6 km/h 84 % 0 mm
22:37 -11.6 °C -12.9 °C 34418.7 hPa WNW 2.6 km/h 10.3 km/h 85 % 0 mm
22:47 -11.7 °C -13 °C 34428.8 hPa West 7.7 km/h 7.7 km/h 86 % 0 mm
22:52 -11.7 °C -13 °C 34428.8 hPa WSW 5.1 km/h 10.3 km/h 86 % 0 mm
22:57 -11.7 °C -12.9 °C 34428.8 hPa West 7.7 km/h 10.3 km/h 86 % 0 mm
23:02 -11.6 °C -12.8 °C 34428.8 hPa West 12.9 km/h 15.6 km/h 86 % 0 mm
23:12 -11.4 °C -12.7 °C 34428.8 hPa WSW 5.1 km/h 20.8 km/h 85 % 0 mm
23:17 -11.3 °C -12.7 °C 34428.8 hPa SW 10.3 km/h 20.8 km/h 85 % 0 mm
23:22 -11.3 °C -12.8 °C 34428.8 hPa SW 5.1 km/h 20.8 km/h 84 % 0 mm
23:27 -11.3 °C -12.8 °C 34428.8 hPa SW 7.7 km/h 20.8 km/h 84 % 0 mm
23:32 -11.4 °C -12.7 °C 34428.8 hPa SW 7.7 km/h 20.8 km/h 85 % 0 mm
23:37 -11.4 °C -12.8 °C 34428.8 hPa WSW 2.6 km/h 20.8 km/h 85 % 0 mm
23:42 -11.4 °C -12.7 °C 34428.8 hPa WSW 5.1 km/h 20.8 km/h 86 % 0 mm
23:47 -11.5 °C -12.8 °C 34428.8 hPa SW 7.7 km/h 20.8 km/h 86 % 0 mm
23:52 -11.6 °C -12.7 °C 34428.8 hPa SW 15.6 km/h 18.2 km/h 87 % 0 mm
23:57 -11.6 °C -12.7 °C 34428.8 hPa SW 12.9 km/h 20.8 km/h 87 % 0 mm
Meteo18
Compliments of Weather Underground - 4 mb

Script developed by  Jim McMurry - jmcmurry@mwt.net Adapted for the template by  Wim van der Kuil - Leuven-Template.eu

You find our weather info also at:

European Weather Network

Weather Underground

Equipment we use:

Weather-station
Davis Vue

Weather-program
Meteobridge

Weather-server
Raspberry PI 2 B+

Provider
1 and 1

Davis Vue

Meteobridge

Raspberry PI 2 B+

1 and 1